Terminal Aerodrome Forecast
Issued by NWS

Home | Current Version | Previous Version | Graphics & Text | Print | Product List | Glossary On
Versions: 1 2 3 4 5 6 7 8 9 10 11 12 13 14 15 16 17 18
285
FTUS43 KIWX 202231 CCA
TAFSBN
TAF COR
KSBN 202231Z 2022/2118 31008KT P6SM OVC015
     FM210400 03007KT P6SM SCT015 BKN050
     FM210900 08007KT P6SM OVC015
     FM211500 09007KT 4SM -SHRA BR VCTS SCT008CB OVC015=

USA.gov is the U.S. government's official web portal to all federal, state and local government web resources and services.